createdAt,value
2023-05-07T00:01:23.792Z,54.32
2023-05-07T00:03:50.754Z,54.76
2023-05-07T00:06:18.212Z,55.47
2023-05-07T00:08:44.916Z,54.89
2023-05-07T00:11:11.639Z,55.11
2023-05-07T00:13:38.290Z,54.49
2023-05-07T00:16:05.817Z,55.00
2023-05-07T00:18:32.497Z,54.58
2023-05-07T00:20:59.268Z,54.00
2023-05-07T00:23:25.863Z,54.20
2023-05-07T00:25:52.573Z,56.97
2023-05-07T00:28:19.186Z,60.22
2023-05-07T00:30:45.848Z,60.00
2023-05-07T00:33:12.573Z,59.14
2023-05-07T00:35:39.468Z,59.00
2023-05-07T00:38:06.123Z,60.08
2023-05-07T00:40:34.006Z,59.12
2023-05-07T00:43:01.021Z,58.01
2023-05-07T00:45:29.487Z,56.91
2023-05-07T00:48:02.153Z,56.77
2023-05-07T00:50:29.656Z,57.06
2023-05-07T00:52:56.816Z,57.11
2023-05-07T00:55:24.870Z,56.47
2023-05-07T00:57:52.295Z,56.99
2023-05-07T01:00:19.656Z,58.94
2023-05-07T01:02:47.735Z,61.66
2023-05-07T01:05:18.485Z,61.96
2023-05-07T01:07:46.643Z,62.00
2023-05-07T01:10:13.990Z,60.62
2023-05-07T01:12:41.656Z,59.33
2023-05-07T01:15:10.514Z,59.25
2023-05-07T01:17:38.976Z,59.69
2023-05-07T01:20:08.366Z,58.95
2023-05-07T01:22:37.697Z,58.21
2023-05-07T01:25:05.591Z,58.50
2023-05-07T01:27:34.255Z,58.42
2023-05-07T01:30:00.999Z,58.67
2023-05-07T01:32:36.947Z,58.27
2023-05-07T01:35:06.277Z,57.47
2023-05-07T01:37:33.817Z,57.38
2023-05-07T01:40:02.137Z,57.54
2023-05-07T01:42:30.306Z,57.51
2023-05-07T01:44:57.400Z,57.13
2023-05-07T01:47:25.219Z,57.95
2023-05-07T01:49:52.044Z,59.13
2023-05-07T01:52:18.808Z,61.17
2023-05-07T01:54:45.680Z,62.22
2023-05-07T01:57:12.364Z,62.03
2023-05-07T01:59:39.040Z,61.44
2023-05-07T02:02:05.934Z,61.97
2023-05-07T02:04:32.577Z,63.13
2023-05-07T02:06:59.208Z,62.96
2023-05-07T02:09:25.851Z,63.93
2023-05-07T02:11:52.433Z,62.22
2023-05-07T02:14:19.227Z,61.69
2023-05-07T02:16:45.994Z,62.37
2023-05-07T02:19:12.788Z,61.47
2023-05-07T02:21:39.404Z,60.17
2023-05-07T02:24:06.284Z,59.57
2023-05-07T02:26:33.073Z,59.32
2023-05-07T02:28:59.641Z,59.27
2023-05-07T02:31:26.316Z,60.53
2023-05-07T02:33:52.946Z,62.00
2023-05-07T02:36:19.610Z,62.01
2023-05-07T02:38:46.243Z,62.07
2023-05-07T02:41:12.856Z,63.39
2023-05-07T02:43:39.492Z,63.88
2023-05-07T02:46:08.205Z,62.66
2023-05-07T02:48:35.471Z,62.09
2023-05-07T02:51:03.334Z,61.99
2023-05-07T02:53:30.521Z,63.33
2023-05-07T02:55:58.473Z,62.51
2023-05-07T02:58:25.600Z,62.49
2023-05-07T03:00:52.504Z,62.54
2023-05-07T03:03:19.299Z,62.47
2023-05-07T03:05:45.917Z,63.03
2023-05-07T03:08:12.669Z,64.60
2023-05-07T03:10:39.385Z,64.17
2023-05-07T03:13:06.441Z,62.46
2023-05-07T03:15:33.128Z,61.55
2023-05-07T03:17:59.997Z,61.51
2023-05-07T03:20:26.728Z,61.03
2023-05-07T03:22:53.433Z,61.75
2023-05-07T03:25:20.252Z,61.06
2023-05-07T03:27:46.856Z,60.16
2023-05-07T03:30:13.862Z,60.84
2023-05-07T03:32:40.792Z,60.84
2023-05-07T03:35:08.186Z,61.39
2023-05-07T03:37:34.916Z,61.39
2023-05-07T03:40:01.572Z,62.39
2023-05-07T03:42:29.562Z,62.01
2023-05-07T03:44:56.195Z,61.13
2023-05-07T03:47:22.911Z,61.04
2023-05-07T03:49:50.324Z,60.53
2023-05-07T03:52:17.189Z,60.32
2023-05-07T03:54:43.826Z,61.20
2023-05-07T03:57:10.467Z,62.18
2023-05-07T03:59:37.154Z,61.81
2023-05-07T04:02:05.614Z,62.13
2023-05-07T04:04:34.037Z,61.33
2023-05-07T04:07:01.522Z,61.31
2023-05-07T04:09:28.174Z,62.60
2023-05-07T04:11:54.852Z,63.92
2023-05-07T04:14:21.483Z,62.85
2023-05-07T04:16:48.196Z,61.93
2023-05-07T04:19:14.923Z,61.24
2023-05-07T04:21:41.684Z,61.31
2023-05-07T04:24:08.482Z,60.49
2023-05-07T04:26:35.168Z,60.64
2023-05-07T04:29:01.976Z,60.45
2023-05-07T04:31:28.646Z,61.03
2023-05-07T04:33:55.562Z,61.69
2023-05-07T04:36:22.522Z,61.58
2023-05-07T04:38:49.138Z,62.36
2023-05-07T04:41:16.200Z,62.87
2023-05-07T04:43:42.821Z,62.89
2023-05-07T04:46:09.577Z,62.63
2023-05-07T04:48:36.301Z,61.00
2023-05-07T04:51:03.450Z,60.09
2023-05-07T04:53:30.074Z,61.06
2023-05-07T04:56:00.555Z,62.31
2023-05-07T04:58:27.282Z,63.85
2023-05-07T05:00:53.947Z,62.78
2023-05-07T05:03:20.614Z,61.65
2023-05-07T05:05:47.364Z,60.70
2023-05-07T05:08:14.017Z,60.03
2023-05-07T05:10:42.687Z,60.36
2023-05-07T05:13:09.302Z,61.09
2023-05-07T05:15:36.237Z,60.88
2023-05-07T05:18:02.985Z,60.79
2023-05-07T05:20:29.620Z,60.21
2023-05-07T05:22:56.236Z,60.40
2023-05-07T05:25:22.905Z,60.11
2023-05-07T05:27:49.645Z,61.46
2023-05-07T05:30:16.224Z,61.34
2023-05-07T05:32:42.882Z,62.91
2023-05-07T05:35:09.800Z,61.60
2023-05-07T05:37:36.528Z,60.31
2023-05-07T05:40:03.367Z,60.54
2023-05-07T05:42:29.985Z,59.86
2023-05-07T05:44:56.632Z,59.16
2023-05-07T05:47:24.115Z,59.58
2023-05-07T05:49:50.846Z,58.33
2023-05-07T05:52:18.421Z,57.96
2023-05-07T05:54:45.007Z,59.50
2023-05-07T05:57:11.851Z,60.68
2023-05-07T05:59:38.556Z,59.87
2023-05-07T06:02:05.215Z,59.41
2023-05-07T06:04:31.922Z,57.66
2023-05-07T06:06:58.626Z,58.40
2023-05-07T06:09:25.244Z,57.95
2023-05-07T06:11:52.126Z,58.35
2023-05-07T06:14:18.787Z,57.81
2023-05-07T06:16:45.900Z,57.55
2023-05-07T06:19:12.572Z,57.40
2023-05-07T06:21:40.348Z,57.51
2023-05-07T06:24:07.350Z,58.03
2023-05-07T06:26:33.996Z,59.27
2023-05-07T06:29:00.680Z,57.59
2023-05-07T06:31:32.071Z,57.00
2023-05-07T06:33:59.987Z,56.86
2023-05-07T06:36:27.500Z,56.16
2023-05-07T06:38:54.198Z,56.51
2023-05-07T06:41:21.638Z,56.91
2023-05-07T06:43:48.248Z,56.78
2023-05-07T06:46:14.936Z,55.22
2023-05-07T06:48:41.578Z,54.07
2023-05-07T06:51:08.277Z,54.60
2023-05-07T06:53:36.542Z,53.38
2023-05-07T06:56:03.287Z,54.00
2023-05-07T06:58:31.169Z,53.34
2023-05-07T07:00:57.790Z,53.71
2023-05-07T07:03:24.494Z,54.62
2023-05-07T07:05:55.133Z,54.47
2023-05-07T07:08:23.018Z,53.89
2023-05-07T07:10:49.694Z,55.53
2023-05-07T07:13:16.663Z,53.55
2023-05-07T07:15:44.620Z,52.46
2023-05-07T07:18:11.372Z,50.96
2023-05-07T07:20:38.124Z,50.54
2023-05-07T07:23:04.820Z,50.83
2023-05-07T07:25:31.695Z,51.84
2023-05-07T07:27:58.616Z,51.80
2023-05-07T07:30:27.222Z,50.54
2023-05-07T07:32:54.262Z,51.98
2023-05-07T07:35:20.938Z,50.86
2023-05-07T07:37:49.311Z,49.49
2023-05-07T07:40:15.987Z,49.54
2023-05-07T07:42:42.612Z,49.90
2023-05-07T07:45:09.671Z,50.16
2023-05-07T07:47:36.386Z,48.68
2023-05-07T07:50:03.085Z,48.53
2023-05-07T07:52:29.796Z,48.29
2023-05-07T07:54:56.405Z,47.58
2023-05-07T07:57:23.063Z,46.83
2023-05-07T07:59:50.187Z,47.18
2023-05-07T08:02:17.276Z,46.55
2023-05-07T08:04:46.656Z,47.49
2023-05-07T08:07:14.173Z,47.98
2023-05-07T08:09:41.864Z,46.75
2023-05-07T08:12:08.691Z,48.20
2023-05-07T08:14:37.487Z,47.27
2023-05-07T08:17:04.422Z,46.65
2023-05-07T08:19:31.117Z,45.63
2023-05-07T08:21:57.786Z,45.85
2023-05-07T08:24:24.445Z,45.86
2023-05-07T08:26:51.101Z,44.52
2023-05-07T08:29:17.768Z,43.53
2023-05-07T08:31:44.377Z,44.53
2023-05-07T08:34:11.085Z,43.86
2023-05-07T08:36:37.729Z,43.90
2023-05-07T08:39:04.528Z,45.68
2023-05-07T08:41:31.748Z,44.46
2023-05-07T08:44:02.186Z,44.22
2023-05-07T08:46:33.334Z,44.27
2023-05-07T08:49:00.154Z,44.07
2023-05-07T08:51:26.864Z,43.24
2023-05-07T08:53:53.539Z,44.29
2023-05-07T08:56:22.374Z,43.12
2023-05-07T08:58:49.778Z,43.00
2023-05-07T09:01:17.991Z,42.26
2023-05-07T09:03:47.995Z,41.84
2023-05-07T09:06:15.218Z,41.80
2023-05-07T09:08:41.843Z,41.68
2023-05-07T09:11:08.550Z,41.50
2023-05-07T09:13:35.334Z,41.84
2023-05-07T09:16:12.739Z,40.91
2023-05-07T09:18:43.457Z,41.82
2023-05-07T09:21:17.218Z,40.94
2023-05-07T09:23:44.071Z,40.74
2023-05-07T09:26:12.959Z,38.10
2023-05-07T09:28:43.169Z,37.65
2023-05-07T09:31:11.250Z,39.24
2023-05-07T09:33:38.570Z,38.90
2023-05-07T09:36:10.221Z,36.99
2023-05-07T09:38:38.323Z,37.27
2023-05-07T09:41:13.214Z,37.15
2023-05-07T09:43:41.458Z,36.96
2023-05-07T09:46:15.857Z,36.91
2023-05-07T09:48:44.739Z,38.54
2023-05-07T09:51:19.260Z,38.07
2023-05-07T09:53:47.271Z,37.63
2023-05-07T09:56:16.347Z,38.34
2023-05-07T09:58:44.365Z,38.27
2023-05-07T10:01:13.115Z,37.27
2023-05-07T10:03:43.590Z,36.26
2023-05-07T10:06:11.710Z,36.10
2023-05-07T10:08:38.861Z,35.47
2023-05-07T10:11:06.998Z,37.02
2023-05-07T10:13:37.637Z,37.17
2023-05-07T10:16:07.652Z,36.67
2023-05-07T10:18:34.920Z,36.25
2023-05-07T10:21:49.288Z,36.36
2023-05-07T10:24:23.242Z,35.93
2023-05-07T10:26:53.625Z,35.05
2023-05-07T10:29:31.098Z,34.51
2023-05-07T10:32:22.880Z,35.20
2023-05-07T10:34:54.542Z,35.21
2023-05-07T10:37:21.294Z,35.58
2023-05-07T10:39:48.319Z,35.86
2023-05-07T10:42:15.923Z,35.29
2023-05-07T10:44:42.555Z,35.49
2023-05-07T10:47:14.375Z,34.51
2023-05-07T10:49:46.885Z,34.79
2023-05-07T10:52:18.820Z,34.99
2023-05-07T10:54:46.530Z,34.92
2023-05-07T10:57:36.844Z,34.78
2023-05-07T11:00:39.028Z,34.82
2023-05-07T11:03:07.940Z,33.97
2023-05-07T11:05:37.595Z,33.56
2023-05-07T11:08:06.409Z,33.74
2023-05-07T11:10:51.435Z,32.85
2023-05-07T11:13:19.147Z,32.82
2023-05-07T11:15:49.623Z,33.12
2023-05-07T11:18:18.104Z,33.11
2023-05-07T11:20:59.104Z,31.84
2023-05-07T11:23:34.638Z,32.53
2023-05-07T11:26:12.315Z,32.65
2023-05-07T11:28:40.340Z,33.51
2023-05-07T11:31:07.580Z,32.38
2023-05-07T11:33:35.569Z,31.99
2023-05-07T11:36:04.620Z,31.52
2023-05-07T11:38:35.805Z,30.98
2023-05-07T11:41:03.527Z,32.23
2023-05-07T11:43:30.155Z,32.08
2023-05-07T11:46:06.727Z,32.33
2023-05-07T11:48:33.505Z,32.32
2023-05-07T11:51:00.046Z,32.86
2023-05-07T11:53:27.883Z,31.88
2023-05-07T11:55:56.521Z,31.35
2023-05-07T11:58:25.010Z,32.20
2023-05-07T12:00:52.601Z,32.83
2023-05-07T12:03:19.566Z,32.06
2023-05-07T12:05:49.293Z,31.84
2023-05-07T12:08:19.868Z,31.41
2023-05-07T12:10:51.254Z,31.67
2023-05-07T12:13:19.355Z,31.25
2023-05-07T12:15:46.399Z,30.40
2023-05-07T12:18:13.742Z,30.87
2023-05-07T12:20:40.980Z,30.18
2023-05-07T12:23:08.117Z,30.42
2023-05-07T12:25:39.211Z,30.16
2023-05-07T12:28:07.087Z,29.99
2023-05-07T12:30:38.298Z,30.21
2023-05-07T12:33:04.953Z,30.16
2023-05-07T12:35:33.145Z,29.70
2023-05-07T12:38:05.153Z,29.55
2023-05-07T12:40:54.498Z,29.68
2023-05-07T12:43:28.861Z,30.07
2023-05-07T12:45:58.238Z,30.35
2023-05-07T12:48:27.981Z,30.63
2023-05-07T12:50:56.006Z,30.72
2023-05-07T12:53:25.740Z,32.07
2023-05-07T12:55:54.713Z,29.82
2023-05-07T12:58:29.655Z,30.39
2023-05-07T13:01:00.899Z,30.04
2023-05-07T13:03:30.867Z,29.50
2023-05-07T13:06:00.618Z,30.03
2023-05-07T13:08:30.371Z,29.94
2023-05-07T13:10:59.202Z,29.56
2023-05-07T13:13:26.290Z,28.85
2023-05-07T13:15:53.130Z,28.63
2023-05-07T13:18:19.858Z,29.00
2023-05-07T13:20:46.731Z,28.50
2023-05-07T13:23:13.533Z,28.98
2023-05-07T13:25:40.212Z,29.05
2023-05-07T13:28:11.218Z,29.36
2023-05-07T13:30:38.468Z,29.09
2023-05-07T13:33:05.214Z,29.36
2023-05-07T13:35:31.964Z,30.28
2023-05-07T13:37:58.671Z,30.00
2023-05-07T13:40:25.996Z,28.82
2023-05-07T13:42:52.962Z,28.84
2023-05-07T13:45:19.920Z,29.67
2023-05-07T13:47:47.688Z,28.38
2023-05-07T13:50:17.180Z,28.83
2023-05-07T13:52:51.469Z,29.28
2023-05-07T13:55:19.161Z,29.16
2023-05-07T13:57:46.337Z,28.88
2023-05-07T14:00:14.063Z,28.72
2023-05-07T14:05:08.648Z,28.45
2023-05-07T14:07:35.593Z,29.31
2023-05-07T14:10:02.404Z,29.09
2023-05-07T14:12:29.044Z,28.64
2023-05-07T14:14:55.965Z,28.25
2023-05-07T14:17:24.218Z,28.32
2023-05-07T14:19:51.052Z,28.46
2023-05-07T14:22:17.687Z,28.50
2023-05-07T14:24:46.724Z,28.49
2023-05-07T14:27:15.421Z,28.42
2023-05-07T14:29:43.601Z,27.45
2023-05-07T14:32:10.233Z,27.98
2023-05-07T14:34:36.896Z,28.77
2023-05-07T14:37:04.323Z,29.16
2023-05-07T14:39:31.032Z,29.23
2023-05-07T14:41:58.461Z,28.90
2023-05-07T14:44:25.103Z,28.56
2023-05-07T14:46:52.225Z,27.64
2023-05-07T14:49:18.822Z,28.01
2023-05-07T14:51:46.569Z,27.38
2023-05-07T14:54:14.626Z,27.41
2023-05-07T14:56:42.082Z,28.26
2023-05-07T14:59:09.395Z,28.78
2023-05-07T15:01:37.276Z,28.51
2023-05-07T15:04:07.293Z,28.33
2023-05-07T15:06:34.479Z,28.16
2023-05-07T15:09:01.156Z,28.52
2023-05-07T15:11:27.851Z,28.19
2023-05-07T15:13:54.415Z,29.24
2023-05-07T15:16:21.461Z,28.69
2023-05-07T15:18:48.225Z,29.18
2023-05-07T15:21:14.936Z,28.49
2023-05-07T15:23:42.460Z,27.88
2023-05-07T15:26:09.284Z,29.17
2023-05-07T15:28:36.104Z,29.94
2023-05-07T15:31:02.888Z,30.10
2023-05-07T15:33:29.574Z,30.14
2023-05-07T15:35:59.817Z,29.57
2023-05-07T15:38:27.238Z,30.26
2023-05-07T15:40:54.124Z,29.23
2023-05-07T15:43:20.836Z,28.90
2023-05-07T15:45:47.503Z,28.63
2023-05-07T15:48:14.175Z,28.37
2023-05-07T15:50:40.845Z,28.83
2023-05-07T15:53:09.083Z,29.39
2023-05-07T15:55:35.864Z,28.41
2023-05-07T15:58:04.681Z,29.09
2023-05-07T16:00:31.244Z,29.60
2023-05-07T16:02:58.085Z,29.69
2023-05-07T16:05:25.008Z,28.99
2023-05-07T16:07:51.684Z,28.66
2023-05-07T16:10:18.588Z,28.48
2023-05-07T16:12:45.261Z,28.69
2023-05-07T16:15:12.482Z,28.59
2023-05-07T16:17:39.432Z,29.07
2023-05-07T16:20:06.717Z,29.86
2023-05-07T16:22:33.431Z,29.95
2023-05-07T16:25:02.051Z,30.61
2023-05-07T16:27:28.632Z,29.84
2023-05-07T16:29:55.230Z,29.95
2023-05-07T16:32:21.849Z,29.81
2023-05-07T16:34:48.611Z,30.15
2023-05-07T16:37:15.247Z,30.29
2023-05-07T16:39:41.828Z,30.09
2023-05-07T16:42:08.434Z,30.35
2023-05-07T16:44:35.022Z,30.45
2023-05-07T16:47:01.911Z,30.68
2023-05-07T16:49:28.505Z,31.23
2023-05-07T16:51:55.136Z,33.18
2023-05-07T16:54:22.011Z,34.20
2023-05-07T16:56:48.808Z,34.21
2023-05-07T16:59:15.498Z,35.15
2023-05-07T17:01:42.886Z,34.58
2023-05-07T17:04:09.851Z,36.02
2023-05-07T17:06:36.697Z,36.27
2023-05-07T17:09:03.671Z,35.41
2023-05-07T17:11:31.788Z,36.10
2023-05-07T17:13:58.478Z,36.46
2023-05-07T17:16:25.408Z,36.35
2023-05-07T17:18:52.389Z,36.37
2023-05-07T17:21:19.178Z,36.35
2023-05-07T17:23:45.809Z,36.64
2023-05-07T17:26:15.414Z,37.13
2023-05-07T17:28:42.339Z,37.35
2023-05-07T17:31:09.037Z,37.08
2023-05-07T17:33:36.592Z,37.24
2023-05-07T17:36:03.462Z,37.62
2023-05-07T17:38:31.488Z,37.68
2023-05-07T17:40:58.700Z,37.90
2023-05-07T17:43:25.377Z,38.27
2023-05-07T17:45:52.144Z,37.68
2023-05-07T17:48:19.098Z,37.84
2023-05-07T17:50:45.750Z,38.05
2023-05-07T17:53:12.556Z,38.26
2023-05-07T17:55:45.965Z,38.53
2023-05-07T17:58:12.919Z,39.43
2023-05-07T18:00:39.554Z,39.45
2023-05-07T18:03:06.404Z,39.81
2023-05-07T18:05:36.755Z,40.62
2023-05-07T18:08:03.676Z,40.56
2023-05-07T18:10:30.349Z,41.29
2023-05-07T18:12:57.123Z,41.40
2023-05-07T18:15:24.014Z,42.31
2023-05-07T18:17:50.773Z,42.04
2023-05-07T18:20:17.606Z,42.26
2023-05-07T18:22:44.188Z,42.63
2023-05-07T18:25:10.860Z,42.24
2023-05-07T18:27:37.439Z,42.85
2023-05-07T18:30:04.414Z,43.33
2023-05-07T18:32:31.058Z,44.19
2023-05-07T18:34:57.781Z,43.81
2023-05-07T18:37:26.108Z,42.87
2023-05-07T18:39:53.507Z,42.70
2023-05-07T18:42:20.240Z,43.18
2023-05-07T18:44:46.952Z,43.71
2023-05-07T18:47:13.942Z,43.62
2023-05-07T18:49:40.664Z,43.53
2023-05-07T18:52:07.262Z,43.65
2023-05-07T18:54:33.972Z,44.20
2023-05-07T18:57:00.632Z,44.63
2023-05-07T18:59:27.315Z,44.29
2023-05-07T19:01:53.992Z,45.09
2023-05-07T19:04:20.898Z,45.58
2023-05-07T19:06:47.632Z,45.87
2023-05-07T19:09:14.653Z,46.05
2023-05-07T19:11:41.460Z,46.18
2023-05-07T19:14:08.257Z,46.52
2023-05-07T19:16:35.123Z,46.56
2023-05-07T19:19:01.880Z,46.29
2023-05-07T19:21:28.762Z,46.64
2023-05-07T19:23:57.429Z,47.19
2023-05-07T19:26:24.532Z,47.13
2023-05-07T19:29:06.526Z,48.32
2023-05-07T19:31:38.739Z,47.66
2023-05-07T19:34:05.506Z,47.22
2023-05-07T19:36:34.351Z,46.83
2023-05-07T19:39:02.063Z,47.16
2023-05-07T19:41:29.212Z,48.08
2023-05-07T19:43:55.998Z,48.52
2023-05-07T19:46:22.750Z,48.59
2023-05-07T19:48:49.513Z,48.01
2023-05-07T19:51:16.162Z,47.83
2023-05-07T19:53:44.919Z,47.85
2023-05-07T19:56:12.677Z,47.84
2023-05-07T19:58:39.483Z,47.98
2023-05-07T20:01:06.807Z,48.08
2023-05-07T20:03:34.526Z,48.10
2023-05-07T20:06:01.447Z,47.92
2023-05-07T20:08:28.641Z,47.82
2023-05-07T20:10:58.190Z,47.92
2023-05-07T20:13:25.001Z,48.05
2023-05-07T20:15:51.663Z,47.70
2023-05-07T20:18:18.353Z,47.69
2023-05-07T20:20:45.463Z,47.72
2023-05-07T20:23:12.128Z,48.86
2023-05-07T20:25:41.588Z,48.52
2023-05-07T20:28:08.196Z,48.13
2023-05-07T20:30:34.937Z,48.24
2023-05-07T20:33:03.970Z,48.49
2023-05-07T20:35:32.249Z,48.49
2023-05-07T20:37:58.957Z,48.61
2023-05-07T20:40:25.668Z,49.38
2023-05-07T20:42:52.273Z,50.34
2023-05-07T20:45:19.169Z,51.28
2023-05-07T20:47:45.863Z,51.98
2023-05-07T20:50:12.858Z,51.15
2023-05-07T20:52:39.975Z,50.59
2023-05-07T20:55:07.211Z,49.97
2023-05-07T20:57:34.234Z,49.76
2023-05-07T21:00:00.869Z,49.45
2023-05-07T21:02:27.523Z,49.38
2023-05-07T21:04:54.469Z,49.18
2023-05-07T21:07:21.049Z,49.24
2023-05-07T21:09:47.645Z,48.98
2023-05-07T21:12:14.319Z,49.56
2023-05-07T21:14:41.099Z,50.41
2023-05-07T21:17:08.212Z,50.48
2023-05-07T21:19:35.083Z,50.12
2023-05-07T21:22:01.733Z,49.79
2023-05-07T21:24:28.420Z,49.80
2023-05-07T21:26:56.176Z,49.90
2023-05-07T21:29:23.652Z,49.86
2023-05-07T21:31:50.340Z,49.34
2023-05-07T21:34:17.021Z,49.12
2023-05-07T21:36:43.904Z,49.39
2023-05-07T21:39:11.060Z,49.70
2023-05-07T21:41:37.892Z,50.10
2023-05-07T21:44:05.113Z,51.20
2023-05-07T21:46:31.778Z,50.60
2023-05-07T21:48:58.438Z,50.17
2023-05-07T21:51:25.151Z,50.20
2023-05-07T21:53:51.836Z,50.43
2023-05-07T21:56:18.621Z,50.33
2023-05-07T21:58:45.296Z,50.57
2023-05-07T22:01:13.043Z,50.26
2023-05-07T22:03:41.208Z,51.07
2023-05-07T22:06:08.003Z,50.81
2023-05-07T22:08:34.705Z,51.74
2023-05-07T22:11:01.389Z,52.32
2023-05-07T22:13:28.338Z,52.22
2023-05-07T22:15:58.091Z,51.79
2023-05-07T22:18:26.100Z,50.45
2023-05-07T22:20:52.958Z,51.06
2023-05-07T22:23:19.676Z,52.84
2023-05-07T22:25:46.431Z,52.33
2023-05-07T22:28:13.109Z,53.19
2023-05-07T22:30:40.207Z,53.16
2023-05-07T22:33:07.059Z,53.26
2023-05-07T22:35:33.800Z,53.45
2023-05-07T22:38:00.495Z,53.25
2023-05-07T22:40:27.388Z,52.41
2023-05-07T22:42:54.012Z,52.12
2023-05-07T22:45:20.844Z,52.33
2023-05-07T22:47:48.407Z,52.11
2023-05-07T22:50:15.518Z,52.70
2023-05-07T22:52:42.226Z,53.12
2023-05-07T22:55:09.093Z,53.41
2023-05-07T22:57:35.799Z,53.41
2023-05-07T23:00:02.661Z,53.38
2023-05-07T23:02:29.620Z,53.45
2023-05-07T23:04:59.944Z,53.07
2023-05-07T23:07:27.087Z,53.06
2023-05-07T23:09:53.876Z,52.71
2023-05-07T23:12:20.539Z,52.79
2023-05-07T23:14:47.285Z,52.65
2023-05-07T23:17:14.097Z,53.19
2023-05-07T23:19:41.055Z,54.14
2023-05-07T23:22:07.940Z,53.31
2023-05-07T23:24:34.909Z,53.51
2023-05-07T23:27:05.622Z,53.47
2023-05-07T23:29:32.882Z,54.54
2023-05-07T23:31:59.820Z,54.61
2023-05-07T23:34:26.926Z,54.06
2023-05-07T23:36:54.039Z,54.09
2023-05-07T23:39:20.933Z,53.11
2023-05-07T23:41:47.560Z,53.46
2023-05-07T23:44:16.545Z,53.66
2023-05-07T23:46:44.582Z,53.91
2023-05-07T23:49:11.559Z,53.42
2023-05-07T23:51:38.299Z,52.94
2023-05-07T23:54:05.246Z,53.12
2023-05-07T23:56:31.974Z,53.21
2023-05-07T23:58:58.669Z,52.96
